Lake Worth, FL

3:05 AM EDT on May 01, 2017 (GMT -0400)
Southeast Lake Osborne | | Change Station

Elev 16 ft 26.58 °N, 80.08 °W | Updated 35 seconds ago

Overcast
Overcast
77.2 °F
Feels Like 79 °F
N
5.5
Wind Variable Wind from SSW
Gusts 8.3 mph

Today
High -- | Low -- °F
--% Chance of Precip.
Yesterday
High -- | Low -- °F
Precip. -- in
Pressure 30.06 in
Visibility 10.0 miles
Clouds Scattered Clouds 2100 ft
Mostly Cloudy 2800 ft
Mostly Cloudy 3800 ft
Heat Index 79 °F
Dew Point 71 °F
Humidity 82%
Rainfall 0.00 in
Snow Depth Not available.
6:42 AM 7:52 PM
Waxing Crescent, 30% visible
METAR KPBI 010653Z 12017G24KT 10SM SCT021 BKN028 BKN038 25/21 A3006 RMK AO2 SLP179 T02500206 $
Pressure 30.06 in
Visibility 10.0 miles
Clouds Scattered Clouds 2100 ft
Mostly Cloudy 2800 ft
Mostly Cloudy 3800 ft
Heat Index 79 °F
Dew Point 71 °F
Humidity 82%
Rainfall 0.00 in
Snow Depth Not available.
6:42 AM 7:52 PM
Waxing Crescent, 30% visible
METAR KPBI 010653Z 12017G24KT 10SM SCT021 BKN028 BKN038 25/21 A3006 RMK AO2 SLP179 T02500206 $

Get Severe Weather Alerts

Thanks for signing up!

Be on the lookout for a verification email in your inbox.

You'll start receiving the daily forecast at 8 AM.

×

10-Day Weather Forecast

Almanac

Astronomy

May. 01, 2017 Rise Set
Actual Time
Civil Twilight
Nautical Twilight
Astronomical Twilight
Moon
Length of Visible Light
Length of Day
Tomorrow will be .
, % of the Moon is Illuminated

Today's Extremes

State Highs State Lows

Community

WunderPhotos

WunderBlog® & News

Nearby

Air Quality

  Air Quality AQ Index Pollutant
Not available.

Snow Depth

Station Depth Elevation

Earthquake Activity

City Distance Mag. Time & Date
Minimum magnitude displayed is 2.5.

Coastal Water Temperatures

Place Temperature

Stations

Nearby Weather Stations

Station Location Temp. Windchill Dew Point Humidity Wind Precip. Elev Updated Type
                   

Watches & Warnings

There are currently no watches in effect.